• Join FlightAware (Why Join?)
  • Login
  • US Flag 
11:47AM EDT


 

Airport Tracker/Info


-or-


 

Live Flight TrackerFlight Track Log ✈ N559LC ✈ 19-Nov-2013 ✈ KPTK - KDTW

Flight Track Log - Related Links

Times and Time Zones

All times are in EST time to prevent confusion due to time zone crossing. See the N559LC flight status page for this flight to view local times or setup timezone preferences in your user account.

Time Position Orientation Groundspeed Altitude Reporting Facility
EST Latitude Longitude Course Direction KTS MPH feet Rate Location/Type
08:43AM 42.6636 -83.4378 260° West 161 185 2,200  Level Cleveland Center
08:44AM 42.6539 -83.5103 260° West 232 267 3,100 420 Climbing Cleveland Center
08:45AM 42.6417 -83.6108 261° West 244 281 3,100  Level Cleveland Center
08:46AM 42.6392 -83.6928 268° West 240 276 3,100 1,800 Level Cleveland Center
08:47AM 42.6944 -83.7183 341° North 275 316 6,400 3,660 Climbing Cleveland Center
08:48AM 42.7622 -83.7258 355° North 248 285 10,000 1,740 Climbing Cleveland Center
08:49AM 42.8458 -83.7342 356° North 287 330 10,000 -180 Level Cleveland Center
08:50AM 42.9364 -83.7442 355° North 304 350 9,700 -1,020 Descending Cleveland Center
08:51AM 42.9819 -83.8061 315° West 262 302 8,000 -1,800 Descending Cleveland Center
08:52AM 42.9950 -83.8825 283° West 258 297 6,400 -1,860 Descending Cleveland Center
08:52AM 42.9881 -83.8958 235° Southwest 261 300 6,100 -240 Descending Cleveland Center
08:53AM 42.9061 -83.8661 165° South 293 337 6,100 -60 Level Cleveland Center
08:54AM 42.8678 -83.7914 125° Southeast 283 326 6,000  Descending Cleveland Center
08:54AM 42.8553 -83.7703 129° Southeast 285 328 6,100  Climbing Cleveland Center
08:55AM 42.8122 -83.7194 139° Southeast 283 326 6,000  Descending Cleveland Center
08:55AM 42.7972 -83.7103 156° South 289 333 6,100  Climbing Cleveland Center
08:56AM 42.7286 -83.7047 177° South 285 328 6,000  Descending Cleveland Center
08:56AM 42.7178 -83.7072 190° South 285 328 6,100 60 Climbing Cleveland Center
08:57AM 42.6506 -83.7081 181° South 287 330 6,100  Level Cleveland Center
08:57AM 42.6275 -83.7081 180° South 286 329 6,100  Level Cleveland Center
08:58AM 42.5706 -83.7100 181° South 288 331 6,100  Level Cleveland Center
08:58AM 42.5475 -83.7133 186° South 285 328 6,100 -120 Level Cleveland Center
08:59AM 42.4917 -83.7050 174° South 288 331 6,000  Descending Cleveland Center
08:59AM 42.4650 -83.6953 165° South 290 334 6,100  Climbing Cleveland Center
09:00AM 42.4164 -83.6731 161° South 290 334 6,000  Descending Cleveland Center
09:01AM 42.3881 -83.6614 163° South 288 331 6,100  Climbing Cleveland Center
09:01AM 42.3289 -83.6256 156° South 294 338 6,000  Descending Cleveland Center
09:01AM 42.3203 -83.6178 146° Southeast 290 334 6,100  Climbing Cleveland Center
09:02AM 42.2758 -83.5564 134° Southeast 293 337 6,000 -420 Descending Cleveland Center
09:02AM 42.2636 -83.5417 138° Southeast 278 320 5,700 -900 Descending Cleveland Center
09:03AM 42.2264 -83.4744 127° Southeast 280 322 5,100 -600 Descending Cleveland Center
09:03AM 42.2178 -83.4589 127° Southeast 282 325 5,100  Level Cleveland Center
09:04AM 42.1792 -83.3883 126° Southeast 282 325 5,100  Level Cleveland Center
09:04AM 42.1683 -83.3675 125° Southeast 285 328 5,100 -120 Level Cleveland Center
09:05AM 42.1122 -83.3067 141° Southeast 285 328 5,000  Descending Cleveland Center
09:06AM 42.1081 -83.3056 169° South 291 335 5,100 60 Climbing Cleveland Center
09:06AM 42.0369 -83.3067 181° South 280 322 5,100 -120 Level Cleveland Center
09:07AM 42.0356 -83.3072 197° South 285 328 5,000 -480 Descending Cleveland Center
09:08AM 41.9775 -83.3464 207° Southwest 244 281 4,600 -480 Descending Cleveland Center
09:08AM 41.9578 -83.4053 246° West 171 197 4,100 -600 Descending Cleveland Center
09:09AM 41.9578 -83.4053 246° West 197 227 4,000  Descending Cleveland Center
09:10AM 41.9931 -83.4383 325° Northwest 175 201 4,100 60 Climbing Cleveland Center
09:10AM 41.9861 -83.4400 190° South 182 209 4,100  Level Cleveland Center
09:11AM 42.0353 -83.4331 North 163 188 4,100  Level Cleveland Center
09:11AM 42.0331 -83.4331 180° South 173 199 4,100 -360 Level Cleveland Center
09:12AM 42.0858 -83.4319 North 162 186 3,700 -720 Descending Cleveland Center
09:13AM 42.1169 -83.4081 30° Northeast 125 144 2,800 -1,020 Descending Cleveland Center
09:13AM 42.1208 -83.4061 20° North 154 177 2,700 -1,020 Descending Cleveland Center
09:13AM 42.1458 -83.3867 30° Northeast 129 148 1,900 -900 Descending Cleveland Center
09:14AM 42.1525 -83.3833 20° North 139 160 1,800 -840 Descending Cleveland Center
09:14AM 42.1792 -83.3633 29° Northeast 129 148 1,100 -780 Descending Cleveland Center
09:15AM 42.1844 -83.3606 21° North 134 154 1,000 -180 Descending Cleveland Center
09:16AM 42.2158 -83.3383 28° Northeast 133 153 900 -120 Descending Cleveland Center